METAR Data
IDs: Format: Raw Decoded Include TAF

Data at: 1820 UTC 21 Sep 2018

KINJ 211815Z AUTO 16015G19KT 10SM BKN027 BKN036 30/24 A2994 RMK AO2 T03020238
KINJ 211755Z AUTO 15014G19KT 10SM SCT024 BKN030 OVC039 30/24 A2996 RMK AO2 LTG DSNT E T02970238 10299 20251
KINJ 211735Z AUTO 16013G16KT 10SM SCT024 BKN030 OVC039 29/24 A2997 RMK AO2 T02900240
KINJ 211715Z AUTO 15016G20KT 10SM SCT024 BKN029 OVC120 29/24 A2997 RMK AO2 T02920237
KINJ 211655Z AUTO 17012G19KT 10SM SCT019 SCT027 BKN033 30/24 A2997 RMK AO2 T02970241
KINJ 211635Z AUTO 16013G17KT 10SM SCT019 BKN025 BKN029 29/24 A2998 RMK AO2 T02880242
KINJ 211615Z AUTO 16014KT 10SM BKN019 BKN023 BKN110 28/24 A2998 RMK AO2 T02800242
KINJ 211555Z AUTO 16013G20KT 10SM BKN019 BKN024 OVC028 28/25 A2997 RMK AO2 T02800246
KINJ 211535Z AUTO 15013KT 10SM BKN017 BKN021 OVC110 28/25 A2997 RMK AO2 T02770247
KINJ 211515Z AUTO 16014G18KT 10SM BKN014 BKN019 OVC120 28/25 A2997 RMK AO2 T02750249
KINJ 211455Z AUTO 16014KT 10SM BKN012 BKN016 OVC120 27/25 A2996 RMK AO2 T02710252
KINJ 211435Z AUTO 16011KT 10SM OVC010 27/26 A2996 RMK AO2 T02680255
KINJ 211415Z AUTO 15009KT 10SM OVC008 26/26 A2996 RMK AO2 T02620256
KINJ 211355Z AUTO 15008KT 10SM OVC008 26/26 A2996 RMK AO2 T02570257
KINJ 211335Z AUTO 15007KT 10SM OVC008 26/26 A2996 RMK AO2 T02550255
KINJ 211315Z AUTO 15007KT 10SM BKN008 OVC015 25/25 A2995 RMK AO2 LTG DSNT SW T02520252
KINJ 211255Z AUTO 16009KT 10SM -DZ OVC008 25/25 A2995 RMK AO2 T02510251
KINJ 211235Z AUTO 16007KT 10SM -DZ OVC008 25/25 A2995 RMK AO2 T02510251
KINJ 211215Z AUTO 15009KT 10SM OVC008 25/25 A2995 RMK AO2 T02520252
KINJ 211155Z AUTO 16007KT 10SM OVC008 25/25 A2995 RMK AO2 T02520252 10253 20238
KINJ 211135Z AUTO 16009KT 10SM OVC008 25/25 A2994 RMK AO2 T02530253
KINJ 211115Z AUTO 16008KT 10SM OVC008 25/25 A2994 RMK AO2 T02530252
KINJ 211055Z AUTO 16008KT 10SM OVC008 25/25 A2994 RMK AO2 T02520250
KINJ 211035Z AUTO 15008KT 10SM OVC008 25/25 A2994 RMK AO2 T02510250
KINJ 211015Z AUTO 15008KT 10SM OVC008 25/25 A2993 RMK AO2 T02500250
KINJ 210955Z AUTO 16008KT 10SM OVC008 25/25 A2994 RMK AO2 T02500248
KINJ 210935Z AUTO 16009KT 10SM BKN008 BKN110 25/25 A2994 RMK AO2 T02480247
KINJ 210915Z AUTO 15008KT 10SM BKN008 BKN110 25/25 A2993 RMK AO2 T02470246
KINJ 210855Z AUTO 14009KT 10SM BKN008 BKN110 25/24 A2993 RMK AO2 T02450243
KINJ 210835Z AUTO 14008KT 10SM SCT010 25/24 A2994 RMK AO2 T02460243
KINJ 210815Z AUTO 14010KT 10SM SCT012 SCT024 SCT085 25/24 A2993 RMK AO2 T02450240
KINJ 210755Z AUTO 14009KT 10SM SCT012 SCT024 OVC085 25/24 A2993 RMK AO2 T02450237
KINJ 210735Z AUTO 15008KT 10SM SCT047 SCT075 OVC085 24/23 A2994 RMK AO2 T02430234
KINJ 210715Z AUTO 14008KT 10SM SCT015 BKN075 OVC085 24/23 A2994 RMK AO2 T02420233
KINJ 210655Z AUTO 14007KT 10SM SCT015 OVC075 24/23 A2995 RMK AO2 T02410232
KINJ 210635Z AUTO 14007KT 10SM SCT019 SCT035 OVC075 24/23 A2994 RMK AO2 T02400231
KINJ 210615Z AUTO 14007KT 10SM SCT019 SCT026 OVC075 24/23 A2995 RMK AO2 T02380228
KINJ 210555Z AUTO 14005KT 10SM SCT021 SCT026 OVC075 24/23 A2995 RMK AO2 T02380225 10275 20228 403350228
KINJ 210535Z AUTO 14007KT 10SM SCT026 SCT034 OVC075 24/23 A2996 RMK AO2 T02370225
KINJ 210515Z AUTO 14009KT 10SM BKN075 OVC085 24/23 A2996 RMK AO2 T02370225
KINJ 210455Z AUTO 13007KT 10SM SCT023 SCT075 OVC090 24/23 A2996 RMK AO2 T02360226
KINJ 210435Z AUTO 14007KT 10SM SCT025 BKN075 OVC090 23/23 A2996 RMK AO2 T02330225
KINJ 210415Z AUTO 14005KT 10SM SCT075 OVC090 23/22 A2996 RMK AO2 T02300222
KINJ 210355Z AUTO 13005KT 10SM SCT029 BKN095 OVC110 23/22 A2996 RMK AO2 T02300220
KINJ 210335Z AUTO 17005KT 10SM -DZ BKN110 23/22 A2997 RMK AO2 T02280221
KINJ 210315Z AUTO 18006KT 10SM BKN120 23/22 A2996 RMK AO2 T02300218
KINJ 210255Z AUTO 18007KT 10SM CLR 23/22 A2996 RMK AO2 T02300217
KINJ 210235Z AUTO 18008KT 10SM SCT020 SCT029 SCT120 23/22 A2996 RMK AO2 T02310221
KINJ 210215Z AUTO 17009KT 10SM -DZ SCT017 BKN029 BKN055 23/23 A2996 RMK AO2 T02310231
KINJ 210155Z AUTO 18014G18KT 10SM SCT012 BKN032 OVC110 24/22 A2996 RMK AO2 T02400222
KINJ 210135Z AUTO 18010KT 10SM SCT032 BKN043 OVC110 26/20 A2994 RMK AO2 T02620203
KINJ 210115Z AUTO 16007KT 10SM BKN110 26/20 A2993 RMK AO2 T02600203
KINJ 210055Z AUTO 14008KT 10SM BKN120 26/20 A2992 RMK AO2 T02600202
KINJ 210035Z AUTO 13009KT 10SM SCT120 27/20 A2991 RMK AO2 LTG DSNT N AND E T02650202
KINJ 210015Z AUTO 14008KT 10SM CLR 27/21 A2990 RMK AO2 LTG DSNT E T02710209
KINJ 202355Z AUTO 12008KT 10SM CLR 28/20 A2990 RMK AO2 LTG DSNT NE T02750204 10335 20273
KINJ 202335Z AUTO 15005G08KT 10SM CLR 28/23 A2990 RMK AO2 LTG DSNT NE THRU S T02820232
KINJ 202315Z AUTO 18008KT 10SM SCT034 28/23 A2991 RMK AO2 LTG DSNT E T02830232
KINJ 202255Z AUTO 22005KT 10SM -RA CLR 28/23 A2991 RMK AO2 LTG DSNT N AND E T02780232
KINJ 202235Z AUTO 23005KT 10SM SCT065 SCT085 28/23 A2990 RMK AO2 LTG DSNT NW T02770231
KINJ 202215Z AUTO 20011KT 10SM -DZ SCT038 SCT045 SCT050 29/23 A2991 RMK AO2 LTG DSNT NE AND NW T02870228
KINJ 202155Z AUTO 16010KT 10SM CLR 31/21 A2990 RMK AO2 LTG DSNT W T03060205
KINJ 202135Z AUTO 17012KT 10SM SCT065 31/20 A2990 RMK AO2 LTG DSNT W AND NW T03100200
KINJ 202115Z AUTO 15010KT 10SM SCT065 SCT075 SCT090 31/21 A2989 RMK AO2 LTG DSNT W T03100205
KINJ 202055Z AUTO 15014KT 10SM SCT046 SCT065 BKN090 32/20 A2990 RMK AO2 LTG DSNT W T03160204
KINJ 202035Z AUTO 12011G16KT 10SM SCT050 SCT065 SCT080 33/22 A2990 RMK AO2 LTG DSNT S THRU W T03260215
KINJ 202015Z AUTO 14011G16KT 10SM SCT045 SCT050 32/20 A2991 RMK AO2 LTG DSNT S AND SW T03230204
KINJ 201955Z AUTO 16009G14KT 10SM SCT045 32/22 A2992 RMK AO2 LTG DSNT S AND SW T03190215
KINJ 201935Z AUTO 17012G15KT 10SM SCT043 32/22 A2992 RMK AO2 T03240218
KINJ 201915Z AUTO 16014KT 10SM SCT039 32/22 A2993 RMK AO2 LTG DSNT S T03190219
KINJ 201855Z AUTO 16012G17KT 10SM SCT035 31/22 A2994 RMK AO2 LTG DSNT SE T03130220
KINJ 201835Z AUTO 17008KT 10SM SCT033 31/23 A2995 RMK AO2 T03050229
KINJ 201815Z AUTO 15012KT 10SM CLR 30/23 A2996 RMK AO2 LTG DSNT S T03040232
KINJ 201755Z AUTO 16010KT 10SM CLR 30/23 A2997 RMK AO2 T02980231 10298 20228
KINJ 201735Z AUTO 15008KT 10SM CLR 29/23 A2998 RMK AO2 LTG DSNT S T02930231
KINJ 201715Z AUTO 15008KT 10SM SCT023 29/23 A2999 RMK AO2 T02910234
KINJ 201655Z AUTO 16007G10KT 10SM SCT021 29/24 A2999 RMK AO2 T02890236
KINJ 201635Z AUTO 15011KT 10SM SCT019 BKN026 29/24 A3000 RMK AO2 T02900238
KINJ 201615Z AUTO 16011KT 10SM BKN019 BKN026 BKN031 28/24 A2999 RMK AO2 T02840239
KINJ 201555Z AUTO 18009KT 10SM BKN019 BKN028 28/24 A2999 RMK AO2 T02840239
KINJ 201535Z AUTO 17011KT 10SM BKN017 29/24 A2999 RMK AO2 T02850241
KINJ 201515Z AUTO 17009KT 10SM SCT015 28/24 A2998 RMK AO2 T02820242
KINJ 201455Z AUTO 15008KT 10SM BKN013 27/24 A2998 RMK AO2 T02720243
KINJ 201435Z AUTO 17006KT 10SM BKN011 27/24 A2997 RMK AO2 T02650242
KINJ 201415Z AUTO 16008KT 10SM SCT011 26/24 A2997 RMK AO2 T02620240
KINJ 201355Z AUTO 17007KT 10SM CLR 26/24 A2997 RMK AO2 T02600239
KINJ 201335Z AUTO 16006KT 10SM CLR 25/24 A2996 RMK AO2 T02540238
KINJ 201315Z AUTO 14006KT 10SM CLR 24/24 A2996 RMK AO2 T02440236
KINJ 201255Z AUTO 16005KT 10SM CLR 24/23 A2996 RMK AO2 T02350233
KINJ 201235Z AUTO 12005KT 10SM CLR 23/23 A2995 RMK AO2 T02320231
KINJ 201215Z AUTO 14004KT 10SM CLR 23/23 A2995 RMK AO2 T02300230
KINJ 201155Z AUTO 17003KT 10SM CLR 23/23 A2994 RMK AO2 T02300229 10270 20228
KINJ 201135Z AUTO 16004KT 10SM CLR 23/23 A2994 RMK AO2 T02280227
KINJ 201115Z AUTO 17003KT 10SM CLR 23/23 A2993 RMK AO2 T02320228
KINJ 201055Z AUTO 17003KT 10SM CLR 24/23 A2993 RMK AO2 T02350227
KINJ 201035Z AUTO 16003KT 10SM CLR 24/23 A2993 RMK AO2 T02360226
KINJ 201015Z AUTO 18004KT 10SM CLR 24/23 A2993 RMK AO2 T02400225
KINJ 200955Z AUTO 16004KT 10SM CLR 24/22 A2993 RMK AO2 T02400223
KINJ 200935Z AUTO 17004KT 10SM CLR 24/22 A2993 RMK AO2 T02410222
KINJ 200915Z AUTO 16004KT 10SM CLR 25/22 A2993 RMK AO2 T02450220
KINJ 200855Z AUTO 16005KT 10SM CLR 25/22 A2993 RMK AO2 T02500220
KINJ 200835Z AUTO 16006KT 10SM CLR 25/22 A2993 RMK AO2 T02520217
KINJ 200815Z AUTO 16008KT 10SM CLR 26/22 A2994 RMK AO2 T02550215
KINJ 200755Z AUTO 16008KT 10SM CLR 26/21 A2994 RMK AO2 T02580213
KINJ 200735Z AUTO 15008KT 10SM CLR 26/21 A2994 RMK AO2 T02600212
KINJ 200715Z AUTO 14005KT 10SM CLR 26/21 A2994 RMK AO2 T02590211
KINJ 200655Z AUTO 16006KT 10SM CLR 26/21 A2994 RMK AO2 T02620210
KINJ 200635Z AUTO 14005KT 10SM CLR 27/21 A2994 RMK AO2 T02650210